sensor_id;sensor_type;location;lat;lon;timestamp;temperature;humidity
19665;DHT22;9980;51.020;7.772;2022-11-20T00:01:29;4.20;98.90
19665;DHT22;9980;51.020;7.772;2022-11-20T00:03:56;4.20;98.90
19665;DHT22;9980;51.020;7.772;2022-11-20T00:06:24;4.20;98.90
19665;DHT22;9980;51.020;7.772;2022-11-20T00:08:51;4.20;98.80
19665;DHT22;9980;51.020;7.772;2022-11-20T00:11:22;4.20;98.90
19665;DHT22;9980;51.020;7.772;2022-11-20T00:13:52;4.20;98.80
19665;DHT22;9980;51.020;7.772;2022-11-20T00:16:22;4.20;98.80
19665;DHT22;9980;51.020;7.772;2022-11-20T00:18:49;4.20;98.80
19665;DHT22;9980;51.020;7.772;2022-11-20T00:21:22;4.20;98.70
19665;DHT22;9980;51.020;7.772;2022-11-20T00:23:51;4.20;98.70
19665;DHT22;9980;51.020;7.772;2022-11-20T00:26:21;4.20;98.80
19665;DHT22;9980;51.020;7.772;2022-11-20T00:28:54;4.10;98.90
19665;DHT22;9980;51.020;7.772;2022-11-20T00:31:22;4.20;98.90
19665;DHT22;9980;51.020;7.772;2022-11-20T00:33:49;4.10;98.90
19665;DHT22;9980;51.020;7.772;2022-11-20T00:36:18;4.10;98.80
19665;DHT22;9980;51.020;7.772;2022-11-20T00:38:45;4.10;98.80
19665;DHT22;9980;51.020;7.772;2022-11-20T00:41:14;4.10;98.90
19665;DHT22;9980;51.020;7.772;2022-11-20T00:43:42;4.10;99.00
19665;DHT22;9980;51.020;7.772;2022-11-20T00:46:17;4.10;99.00
19665;DHT22;9980;51.020;7.772;2022-11-20T00:48:45;4.10;98.90
19665;DHT22;9980;51.020;7.772;2022-11-20T00:51:14;4.10;99.00
19665;DHT22;9980;51.020;7.772;2022-11-20T00:53:43;4.10;99.00
19665;DHT22;9980;51.020;7.772;2022-11-20T00:56:12;4.10;99.00
19665;DHT22;9980;51.020;7.772;2022-11-20T00:58:42;4.10;99.10
19665;DHT22;9980;51.020;7.772;2022-11-20T01:01:12;4.10;99.10
19665;DHT22;9980;51.020;7.772;2022-11-20T01:03:43;4.10;99.00
19665;DHT22;9980;51.020;7.772;2022-11-20T01:06:14;4.10;99.00
19665;DHT22;9980;51.020;7.772;2022-11-20T01:08:43;4.10;99.00
19665;DHT22;9980;51.020;7.772;2022-11-20T01:11:23;4.10;99.00
19665;DHT22;9980;51.020;7.772;2022-11-20T01:13:55;4.10;99.00
19665;DHT22;9980;51.020;7.772;2022-11-20T01:16:31;4.10;99.00
19665;DHT22;9980;51.020;7.772;2022-11-20T01:19:01;4.10;99.10
19665;DHT22;9980;51.020;7.772;2022-11-20T01:21:33;4.10;99.20
19665;DHT22;9980;51.020;7.772;2022-11-20T01:24:03;4.10;99.10
19665;DHT22;9980;51.020;7.772;2022-11-20T01:26:34;4.10;99.10
19665;DHT22;9980;51.020;7.772;2022-11-20T01:29:01;4.10;99.10
19665;DHT22;9980;51.020;7.772;2022-11-20T01:31:33;4.10;99.20
19665;DHT22;9980;51.020;7.772;2022-11-20T01:34:04;4.10;99.20
19665;DHT22;9980;51.020;7.772;2022-11-20T01:36:39;4.10;99.10
19665;DHT22;9980;51.020;7.772;2022-11-20T01:39:15;4.10;99.20
19665;DHT22;9980;51.020;7.772;2022-11-20T01:41:47;4.10;99.10
19665;DHT22;9980;51.020;7.772;2022-11-20T01:44:47;4.10;99.20
19665;DHT22;9980;51.020;7.772;2022-11-20T01:47:21;4.10;99.20
19665;DHT22;9980;51.020;7.772;2022-11-20T01:49:58;4.10;99.30
19665;DHT22;9980;51.020;7.772;2022-11-20T01:52:54;4.10;99.20
19665;DHT22;9980;51.020;7.772;2022-11-20T01:55:32;4.10;99.30
19665;DHT22;9980;51.020;7.772;2022-11-20T01:58:02;4.20;99.30
19665;DHT22;9980;51.020;7.772;2022-11-20T02:00:30;4.10;99.20
19665;DHT22;9980;51.020;7.772;2022-11-20T02:02:59;4.20;99.20
19665;DHT22;9980;51.020;7.772;2022-11-20T02:05:55;4.20;99.30
19665;DHT22;9980;51.020;7.772;2022-11-20T02:08:32;4.20;99.30
19665;DHT22;9980;51.020;7.772;2022-11-20T02:11:22;4.20;99.30
19665;DHT22;9980;51.020;7.772;2022-11-20T02:13:49;4.20;99.30
19665;DHT22;9980;51.020;7.772;2022-11-20T02:18:51;4.20;99.30
19665;DHT22;9980;51.020;7.772;2022-11-20T02:24:03;4.20;99.30
19665;DHT22;9980;51.020;7.772;2022-11-20T02:26:39;4.20;99.40
19665;DHT22;9980;51.020;7.772;2022-11-20T02:29:38;4.20;99.30
19665;DHT22;9980;51.020;7.772;2022-11-20T02:32:28;4.20;99.30
19665;DHT22;9980;51.020;7.772;2022-11-20T02:35:07;4.20;99.40
19665;DHT22;9980;51.020;7.772;2022-11-20T02:37:59;4.20;99.40
19665;DHT22;9980;51.020;7.772;2022-11-20T02:40:29;4.20;99.30
19665;DHT22;9980;51.020;7.772;2022-11-20T02:42:56;4.20;99.40
19665;DHT22;9980;51.020;7.772;2022-11-20T02:45:24;4.20;99.40
19665;DHT22;9980;51.020;7.772;2022-11-20T02:47:50;4.20;99.50
19665;DHT22;9980;51.020;7.772;2022-11-20T02:50:17;4.20;99.50
19665;DHT22;9980;51.020;7.772;2022-11-20T02:52:44;4.20;99.50
19665;DHT22;9980;51.020;7.772;2022-11-20T02:55:10;4.20;99.50
19665;DHT22;9980;51.020;7.772;2022-11-20T02:57:36;4.20;99.50
19665;DHT22;9980;51.020;7.772;2022-11-20T03:00:04;4.20;99.50
19665;DHT22;9980;51.020;7.772;2022-11-20T03:02:31;4.30;99.60
19665;DHT22;9980;51.020;7.772;2022-11-20T03:04:57;4.30;99.60
19665;DHT22;9980;51.020;7.772;2022-11-20T03:07:24;4.30;99.60
19665;DHT22;9980;51.020;7.772;2022-11-20T03:09:50;4.30;99.60
19665;DHT22;9980;51.020;7.772;2022-11-20T03:12:16;4.30;99.50
19665;DHT22;9980;51.020;7.772;2022-11-20T03:14:43;4.30;99.50
19665;DHT22;9980;51.020;7.772;2022-11-20T03:17:09;4.30;99.50
19665;DHT22;9980;51.020;7.772;2022-11-20T03:19:35;4.30;99.50
19665;DHT22;9980;51.020;7.772;2022-11-20T03:22:01;4.30;99.50
19665;DHT22;9980;51.020;7.772;2022-11-20T03:24:27;4.30;99.60
19665;DHT22;9980;51.020;7.772;2022-11-20T03:26:53;4.30;99.60
19665;DHT22;9980;51.020;7.772;2022-11-20T03:29:20;4.30;99.70
19665;DHT22;9980;51.020;7.772;2022-11-20T03:31:47;4.30;99.70
19665;DHT22;9980;51.020;7.772;2022-11-20T03:34:13;4.40;99.60
19665;DHT22;9980;51.020;7.772;2022-11-20T03:36:40;4.30;99.60
19665;DHT22;9980;51.020;7.772;2022-11-20T03:39:09;4.30;99.60
19665;DHT22;9980;51.020;7.772;2022-11-20T03:41:37;4.30;99.70
19665;DHT22;9980;51.020;7.772;2022-11-20T03:44:07;4.30;99.60
19665;DHT22;9980;51.020;7.772;2022-11-20T03:46:35;4.40;99.70
19665;DHT22;9980;51.020;7.772;2022-11-20T03:49:02;4.40;99.70
19665;DHT22;9980;51.020;7.772;2022-11-20T03:51:34;4.30;99.70
19665;DHT22;9980;51.020;7.772;2022-11-20T03:54:05;4.30;99.80
19665;DHT22;9980;51.020;7.772;2022-11-20T03:56:35;4.40;99.80
19665;DHT22;9980;51.020;7.772;2022-11-20T03:59:03;4.40;99.80
19665;DHT22;9980;51.020;7.772;2022-11-20T04:01:33;4.40;99.80
19665;DHT22;9980;51.020;7.772;2022-11-20T04:04:01;4.40;99.90
19665;DHT22;9980;51.020;7.772;2022-11-20T04:06:37;4.40;99.90
19665;DHT22;9980;51.020;7.772;2022-11-20T04:09:05;4.40;99.90
19665;DHT22;9980;51.020;7.772;2022-11-20T04:11:34;4.40;99.90
19665;DHT22;9980;51.020;7.772;2022-11-20T04:14:03;4.40;99.90
19665;DHT22;9980;51.020;7.772;2022-11-20T04:16:34;4.40;99.90
19665;DHT22;9980;51.020;7.772;2022-11-20T04:19:05;4.40;99.90
19665;DHT22;9980;51.020;7.772;2022-11-20T04:21:32;4.40;99.90
19665;DHT22;9980;51.020;7.772;2022-11-20T04:23:58;4.40;99.90
19665;DHT22;9980;51.020;7.772;2022-11-20T04:26:27;4.40;99.90
19665;DHT22;9980;51.020;7.772;2022-11-20T04:28:54;4.40;99.90
19665;DHT22;9980;51.020;7.772;2022-11-20T04:31:24;4.40;99.90
19665;DHT22;9980;51.020;7.772;2022-11-20T04:33:55;4.40;99.90
19665;DHT22;9980;51.020;7.772;2022-11-20T04:36:26;4.40;99.90
19665;DHT22;9980;51.020;7.772;2022-11-20T04:38:54;4.40;99.90
19665;DHT22;9980;51.020;7.772;2022-11-20T04:41:28;4.40;99.90
19665;DHT22;9980;51.020;7.772;2022-11-20T04:43:58;4.40;99.90
19665;DHT22;9980;51.020;7.772;2022-11-20T04:46:34;4.40;99.90
19665;DHT22;9980;51.020;7.772;2022-11-20T04:49:01;4.40;99.90
19665;DHT22;9980;51.020;7.772;2022-11-20T04:51:28;4.40;99.90
19665;DHT22;9980;51.020;7.772;2022-11-20T04:53:54;4.40;99.90
19665;DHT22;9980;51.020;7.772;2022-11-20T04:56:20;4.40;99.90
19665;DHT22;9980;51.020;7.772;2022-11-20T04:58:47;4.40;99.90
19665;DHT22;9980;51.020;7.772;2022-11-20T05:01:21;4.40;99.90
19665;DHT22;9980;51.020;7.772;2022-11-20T05:03:50;4.40;99.90
19665;DHT22;9980;51.020;7.772;2022-11-20T05:06:18;4.40;99.90
19665;DHT22;9980;51.020;7.772;2022-11-20T05:08:46;4.40;99.90
19665;DHT22;9980;51.020;7.772;2022-11-20T05:11:15;4.40;99.90
19665;DHT22;9980;51.020;7.772;2022-11-20T05:13:43;4.40;99.90
19665;DHT22;9980;51.020;7.772;2022-11-20T05:16:12;4.40;99.90
19665;DHT22;9980;51.020;7.772;2022-11-20T05:18:41;4.40;99.90
19665;DHT22;9980;51.020;7.772;2022-11-20T05:21:09;4.50;99.90
19665;DHT22;9980;51.020;7.772;2022-11-20T05:23:36;4.40;99.90
19665;DHT22;9980;51.020;7.772;2022-11-20T05:26:04;4.50;99.90
19665;DHT22;9980;51.020;7.772;2022-11-20T05:28:32;4.50;99.90
19665;DHT22;9980;51.020;7.772;2022-11-20T05:31:13;4.50;99.90
19665;DHT22;9980;51.020;7.772;2022-11-20T05:33:42;4.50;99.90
19665;DHT22;9980;51.020;7.772;2022-11-20T05:36:10;4.50;99.90
19665;DHT22;9980;51.020;7.772;2022-11-20T05:38:41;4.50;99.90
19665;DHT22;9980;51.020;7.772;2022-11-20T05:41:13;4.50;99.90
19665;DHT22;9980;51.020;7.772;2022-11-20T05:43:43;4.50;99.90
19665;DHT22;9980;51.020;7.772;2022-11-20T05:46:13;4.50;99.90
19665;DHT22;9980;51.020;7.772;2022-11-20T05:48:41;4.50;99.90
19665;DHT22;9980;51.020;7.772;2022-11-20T05:51:10;4.50;99.90
19665;DHT22;9980;51.020;7.772;2022-11-20T05:53:38;4.50;99.90
19665;DHT22;9980;51.020;7.772;2022-11-20T05:56:14;4.50;99.90
19665;DHT22;9980;51.020;7.772;2022-11-20T05:58:43;4.50;99.90
19665;DHT22;9980;51.020;7.772;2022-11-20T06:03:38;4.50;99.90
19665;DHT22;9980;51.020;7.772;2022-11-20T06:06:06;4.50;99.90
19665;DHT22;9980;51.020;7.772;2022-11-20T06:08:32;4.50;99.90
19665;DHT22;9980;51.020;7.772;2022-11-20T06:11:05;4.50;99.90
19665;DHT22;9980;51.020;7.772;2022-11-20T06:13:35;4.50;99.90
19665;DHT22;9980;51.020;7.772;2022-11-20T06:16:08;4.50;99.90
19665;DHT22;9980;51.020;7.772;2022-11-20T06:18:35;4.50;99.90
19665;DHT22;9980;51.020;7.772;2022-11-20T06:21:08;4.50;99.90
19665;DHT22;9980;51.020;7.772;2022-11-20T06:23:36;4.50;99.90
19665;DHT22;9980;51.020;7.772;2022-11-20T06:26:08;4.50;99.90
19665;DHT22;9980;51.020;7.772;2022-11-20T06:28:39;4.50;99.90
19665;DHT22;9980;51.020;7.772;2022-11-20T06:31:06;4.50;99.90
19665;DHT22;9980;51.020;7.772;2022-11-20T06:33:33;4.50;99.90
19665;DHT22;9980;51.020;7.772;2022-11-20T06:36:00;4.60;99.90
19665;DHT22;9980;51.020;7.772;2022-11-20T06:38:33;4.60;99.90
19665;DHT22;9980;51.020;7.772;2022-11-20T06:40:59;4.60;99.90
19665;DHT22;9980;51.020;7.772;2022-11-20T06:43:28;4.60;99.90
19665;DHT22;9980;51.020;7.772;2022-11-20T06:45:55;4.60;99.90
19665;DHT22;9980;51.020;7.772;2022-11-20T06:48:24;4.60;99.90
19665;DHT22;9980;51.020;7.772;2022-11-20T06:50:52;4.60;99.90
19665;DHT22;9980;51.020;7.772;2022-11-20T06:53:18;4.60;99.90
19665;DHT22;9980;51.020;7.772;2022-11-20T06:55:46;4.60;99.90
19665;DHT22;9980;51.020;7.772;2022-11-20T06:58:14;4.60;99.90
19665;DHT22;9980;51.020;7.772;2022-11-20T07:00:41;4.60;99.90
19665;DHT22;9980;51.020;7.772;2022-11-20T07:03:10;4.60;99.90
19665;DHT22;9980;51.020;7.772;2022-11-20T07:05:37;4.60;99.90
19665;DHT22;9980;51.020;7.772;2022-11-20T07:08:05;4.70;99.90
19665;DHT22;9980;51.020;7.772;2022-11-20T07:10:31;4.70;99.90
19665;DHT22;9980;51.020;7.772;2022-11-20T07:12:58;4.70;99.90
19665;DHT22;9980;51.020;7.772;2022-11-20T07:15:25;4.70;99.90
19665;DHT22;9980;51.020;7.772;2022-11-20T07:17:52;4.70;99.90
19665;DHT22;9980;51.020;7.772;2022-11-20T07:20:18;4.70;99.90
19665;DHT22;9980;51.020;7.772;2022-11-20T07:22:44;4.70;99.90
19665;DHT22;9980;51.020;7.772;2022-11-20T07:25:11;4.80;99.90
19665;DHT22;9980;51.020;7.772;2022-11-20T07:27:37;4.80;99.90
19665;DHT22;9980;51.020;7.772;2022-11-20T07:30:04;4.80;99.90
19665;DHT22;9980;51.020;7.772;2022-11-20T07:32:30;4.80;99.90
19665;DHT22;9980;51.020;7.772;2022-11-20T07:34:57;4.80;99.90
19665;DHT22;9980;51.020;7.772;2022-11-20T07:37:26;4.80;99.90
19665;DHT22;9980;51.020;7.772;2022-11-20T07:39:52;4.80;99.90
19665;DHT22;9980;51.020;7.772;2022-11-20T07:42:19;4.80;99.90
19665;DHT22;9980;51.020;7.772;2022-11-20T07:44:45;4.80;99.90
19665;DHT22;9980;51.020;7.772;2022-11-20T07:47:11;4.90;99.90
19665;DHT22;9980;51.020;7.772;2022-11-20T07:49:37;4.90;99.90
19665;DHT22;9980;51.020;7.772;2022-11-20T07:52:03;4.90;99.90
19665;DHT22;9980;51.020;7.772;2022-11-20T07:54:31;4.90;99.90
19665;DHT22;9980;51.020;7.772;2022-11-20T07:56:57;5.00;99.90
19665;DHT22;9980;51.020;7.772;2022-11-20T07:59:23;5.00;99.90
19665;DHT22;9980;51.020;7.772;2022-11-20T08:01:50;5.00;99.90
19665;DHT22;9980;51.020;7.772;2022-11-20T08:04:16;5.00;99.90
19665;DHT22;9980;51.020;7.772;2022-11-20T08:06:42;5.00;99.90
19665;DHT22;9980;51.020;7.772;2022-11-20T08:09:09;5.00;99.90
19665;DHT22;9980;51.020;7.772;2022-11-20T08:11:35;5.00;99.90
19665;DHT22;9980;51.020;7.772;2022-11-20T08:14:20;5.10;99.90
19665;DHT22;9980;51.020;7.772;2022-11-20T08:16:48;5.10;99.90
19665;DHT22;9980;51.020;7.772;2022-11-20T08:19:16;5.10;99.90
19665;DHT22;9980;51.020;7.772;2022-11-20T08:21:49;5.20;99.90
19665;DHT22;9980;51.020;7.772;2022-11-20T08:24:15;5.20;99.90
19665;DHT22;9980;51.020;7.772;2022-11-20T08:26:45;5.30;99.90
19665;DHT22;9980;51.020;7.772;2022-11-20T08:29:11;5.30;99.90
19665;DHT22;9980;51.020;7.772;2022-11-20T08:31:37;5.30;99.90
19665;DHT22;9980;51.020;7.772;2022-11-20T08:34:04;5.40;99.90
19665;DHT22;9980;51.020;7.772;2022-11-20T08:36:35;5.40;99.90
19665;DHT22;9980;51.020;7.772;2022-11-20T08:39:02;5.40;99.90
19665;DHT22;9980;51.020;7.772;2022-11-20T08:41:29;5.50;99.90
19665;DHT22;9980;51.020;7.772;2022-11-20T08:44:01;5.50;99.90
19665;DHT22;9980;51.020;7.772;2022-11-20T08:46:40;5.60;99.90
19665;DHT22;9980;51.020;7.772;2022-11-20T08:49:10;5.60;99.90
19665;DHT22;9980;51.020;7.772;2022-11-20T08:51:38;5.60;99.90
19665;DHT22;9980;51.020;7.772;2022-11-20T08:54:06;5.70;99.90
19665;DHT22;9980;51.020;7.772;2022-11-20T08:56:33;5.70;99.90
19665;DHT22;9980;51.020;7.772;2022-11-20T08:58:59;5.80;99.90
19665;DHT22;9980;51.020;7.772;2022-11-20T09:01:45;5.80;99.90
19665;DHT22;9980;51.020;7.772;2022-11-20T09:04:12;5.80;99.90
19665;DHT22;9980;51.020;7.772;2022-11-20T09:06:40;5.90;99.90
19665;DHT22;9980;51.020;7.772;2022-11-20T09:09:08;5.90;99.90
19665;DHT22;9980;51.020;7.772;2022-11-20T09:11:34;5.90;99.90
19665;DHT22;9980;51.020;7.772;2022-11-20T09:14:01;6.00;99.90
19665;DHT22;9980;51.020;7.772;2022-11-20T09:16:28;6.00;99.90
19665;DHT22;9980;51.020;7.772;2022-11-20T09:18:54;6.10;99.90
19665;DHT22;9980;51.020;7.772;2022-11-20T09:21:41;6.20;99.90
19665;DHT22;9980;51.020;7.772;2022-11-20T09:24:07;6.20;99.90
19665;DHT22;9980;51.020;7.772;2022-11-20T09:26:33;6.30;99.90
19665;DHT22;9980;51.020;7.772;2022-11-20T09:28:59;6.30;99.90
19665;DHT22;9980;51.020;7.772;2022-11-20T09:31:26;6.40;99.90
19665;DHT22;9980;51.020;7.772;2022-11-20T09:33:52;6.40;99.90
19665;DHT22;9980;51.020;7.772;2022-11-20T09:36:18;6.40;99.90
19665;DHT22;9980;51.020;7.772;2022-11-20T09:38:45;6.50;99.90
19665;DHT22;9980;51.020;7.772;2022-11-20T09:50:26;6.60;99.90
19665;DHT22;9980;51.020;7.772;2022-11-20T09:56:04;6.60;99.90
19665;DHT22;9980;51.020;7.772;2022-11-20T09:58:40;6.60;99.90
19665;DHT22;9980;51.020;7.772;2022-11-20T10:01:25;6.70;99.90
19665;DHT22;9980;51.020;7.772;2022-11-20T10:04:10;6.70;99.90
19665;DHT22;9980;51.020;7.772;2022-11-20T10:06:51;6.70;99.90
19665;DHT22;9980;51.020;7.772;2022-11-20T10:09:52;6.80;99.90
19665;DHT22;9980;51.020;7.772;2022-11-20T10:21:54;7.00;99.90
19665;DHT22;9980;51.020;7.772;2022-11-20T10:25:05;7.00;99.90
19665;DHT22;9980;51.020;7.772;2022-11-20T10:30:57;7.10;99.80
19665;DHT22;9980;51.020;7.772;2022-11-20T10:33:32;7.10;99.80
19665;DHT22;9980;51.020;7.772;2022-11-20T10:36:39;7.20;99.70
19665;DHT22;9980;51.020;7.772;2022-11-20T10:39:22;7.20;99.60
19665;DHT22;9980;51.020;7.772;2022-11-20T10:41:55;7.20;99.60
19665;DHT22;9980;51.020;7.772;2022-11-20T10:44:27;7.20;99.40
19665;DHT22;9980;51.020;7.772;2022-11-20T10:47:18;7.30;99.10
19665;DHT22;9980;51.020;7.772;2022-11-20T10:49:53;7.20;99.30
19665;DHT22;9980;51.020;7.772;2022-11-20T10:55:38;7.30;99.30
19665;DHT22;9980;51.020;7.772;2022-11-20T10:58:50;7.30;99.30
19665;DHT22;9980;51.020;7.772;2022-11-20T11:01:26;7.30;99.30
19665;DHT22;9980;51.020;7.772;2022-11-20T11:03:55;7.40;99.30
19665;DHT22;9980;51.020;7.772;2022-11-20T11:06:41;7.40;99.10
19665;DHT22;9980;51.020;7.772;2022-11-20T11:09:16;7.40;98.90
19665;DHT22;9980;51.020;7.772;2022-11-20T11:11:46;7.40;98.90
19665;DHT22;9980;51.020;7.772;2022-11-20T11:14:15;7.40;98.90
19665;DHT22;9980;51.020;7.772;2022-11-20T11:16:56;7.40;98.60
19665;DHT22;9980;51.020;7.772;2022-11-20T11:19:23;7.40;98.50
19665;DHT22;9980;51.020;7.772;2022-11-20T11:21:55;7.40;98.80
19665;DHT22;9980;51.020;7.772;2022-11-20T11:24:28;7.40;98.80
19665;DHT22;9980;51.020;7.772;2022-11-20T11:27:13;7.40;98.70
19665;DHT22;9980;51.020;7.772;2022-11-20T11:29:44;7.40;99.00
19665;DHT22;9980;51.020;7.772;2022-11-20T11:32:19;7.40;99.00
19665;DHT22;9980;51.020;7.772;2022-11-20T11:35:05;7.40;99.10
19665;DHT22;9980;51.020;7.772;2022-11-20T11:37:37;7.40;99.10
19665;DHT22;9980;51.020;7.772;2022-11-20T11:40:08;7.40;99.20
19665;DHT22;9980;51.020;7.772;2022-11-20T11:42:57;7.40;99.20
19665;DHT22;9980;51.020;7.772;2022-11-20T11:45:55;7.50;99.40
19665;DHT22;9980;51.020;7.772;2022-11-20T11:48:22;7.50;99.30
19665;DHT22;9980;51.020;7.772;2022-11-20T11:50:49;7.50;99.40
19665;DHT22;9980;51.020;7.772;2022-11-20T11:53:19;7.60;99.20
19665;DHT22;9980;51.020;7.772;2022-11-20T11:58:47;7.60;99.30
19665;DHT22;9980;51.020;7.772;2022-11-20T12:01:33;7.70;99.20
19665;DHT22;9980;51.020;7.772;2022-11-20T12:04:21;7.70;98.80
19665;DHT22;9980;51.020;7.772;2022-11-20T12:10:22;7.80;99.10
19665;DHT22;9980;51.020;7.772;2022-11-20T12:16:12;7.80;99.10
19665;DHT22;9980;51.020;7.772;2022-11-20T12:18:40;7.90;99.10
19665;DHT22;9980;51.020;7.772;2022-11-20T12:30:00;7.90;98.90
19665;DHT22;9980;51.020;7.772;2022-11-20T12:38:13;7.80;98.80
19665;DHT22;9980;51.020;7.772;2022-11-20T12:48:00;7.80;98.90
19665;DHT22;9980;51.020;7.772;2022-11-20T12:56:51;7.70;99.00
19665;DHT22;9980;51.020;7.772;2022-11-20T13:06:05;7.70;99.00
19665;DHT22;9980;51.020;7.772;2022-11-20T13:08:41;7.70;99.00
19665;DHT22;9980;51.020;7.772;2022-11-20T13:11:41;7.70;99.00
19665;DHT22;9980;51.020;7.772;2022-11-20T13:20:16;7.60;99.30
19665;DHT22;9980;51.020;7.772;2022-11-20T13:22:49;7.60;99.30
19665;DHT22;9980;51.020;7.772;2022-11-20T13:25:30;7.70;99.40
19665;DHT22;9980;51.020;7.772;2022-11-20T13:28:04;7.70;99.50
19665;DHT22;9980;51.020;7.772;2022-11-20T13:30:53;7.70;99.50
19665;DHT22;9980;51.020;7.772;2022-11-20T13:33:34;7.70;99.50
19665;DHT22;9980;51.020;7.772;2022-11-20T13:36:27;7.70;99.60
19665;DHT22;9980;51.020;7.772;2022-11-20T13:38:55;7.70;99.60
19665;DHT22;9980;51.020;7.772;2022-11-20T13:41:34;7.70;99.60
19665;DHT22;9980;51.020;7.772;2022-11-20T13:44:26;7.70;99.70
19665;DHT22;9980;51.020;7.772;2022-11-20T13:47:04;7.70;99.70
19665;DHT22;9980;51.020;7.772;2022-11-20T13:49:47;7.70;99.60
19665;DHT22;9980;51.020;7.772;2022-11-20T13:55:54;7.70;99.60
19665;DHT22;9980;51.020;7.772;2022-11-20T14:01:30;7.70;99.60
19665;DHT22;9980;51.020;7.772;2022-11-20T14:03:58;7.70;99.70
19665;DHT22;9980;51.020;7.772;2022-11-20T14:06:38;7.70;99.60
19665;DHT22;9980;51.020;7.772;2022-11-20T14:09:24;7.70;99.60
19665;DHT22;9980;51.020;7.772;2022-11-20T14:11:52;7.70;99.70
19665;DHT22;9980;51.020;7.772;2022-11-20T14:14:21;7.60;99.70
19665;DHT22;9980;51.020;7.772;2022-11-20T14:16:51;7.60;99.70
19665;DHT22;9980;51.020;7.772;2022-11-20T14:22:06;7.60;99.80
19665;DHT22;9980;51.020;7.772;2022-11-20T14:24:35;7.60;99.80
19665;DHT22;9980;51.020;7.772;2022-11-20T14:27:02;7.60;99.90
19665;DHT22;9980;51.020;7.772;2022-11-20T14:29:38;7.60;99.90
19665;DHT22;9980;51.020;7.772;2022-11-20T14:32:08;7.60;99.90
19665;DHT22;9980;51.020;7.772;2022-11-20T14:34:44;7.60;99.90
19665;DHT22;9980;51.020;7.772;2022-11-20T14:37:19;7.60;99.90
19665;DHT22;9980;51.020;7.772;2022-11-20T14:39:55;7.60;99.90
19665;DHT22;9980;51.020;7.772;2022-11-20T14:42:24;7.60;99.90
19665;DHT22;9980;51.020;7.772;2022-11-20T14:44:57;7.60;99.90
19665;DHT22;9980;51.020;7.772;2022-11-20T14:47:29;7.60;99.90
19665;DHT22;9980;51.020;7.772;2022-11-20T14:49:57;7.60;99.90
19665;DHT22;9980;51.020;7.772;2022-11-20T14:52:26;7.60;99.90
19665;DHT22;9980;51.020;7.772;2022-11-20T14:54:56;7.60;99.90
19665;DHT22;9980;51.020;7.772;2022-11-20T14:57:26;7.60;99.90
19665;DHT22;9980;51.020;7.772;2022-11-20T15:00:18;7.60;99.90
19665;DHT22;9980;51.020;7.772;2022-11-20T15:02:48;7.60;99.90
19665;DHT22;9980;51.020;7.772;2022-11-20T15:05:17;7.60;99.90
19665;DHT22;9980;51.020;7.772;2022-11-20T15:07:47;7.60;99.90
19665;DHT22;9980;51.020;7.772;2022-11-20T15:10:25;7.60;99.90
19665;DHT22;9980;51.020;7.772;2022-11-20T15:13:00;7.60;99.90
19665;DHT22;9980;51.020;7.772;2022-11-20T15:15:49;7.60;99.90
19665;DHT22;9980;51.020;7.772;2022-11-20T15:18:19;7.60;99.90
19665;DHT22;9980;51.020;7.772;2022-11-20T15:20:49;7.60;99.90
19665;DHT22;9980;51.020;7.772;2022-11-20T15:23:18;7.60;99.90
19665;DHT22;9980;51.020;7.772;2022-11-20T15:25:45;7.60;99.90
19665;DHT22;9980;51.020;7.772;2022-11-20T15:30:55;7.60;99.90
19665;DHT22;9980;51.020;7.772;2022-11-20T15:33:22;7.60;99.90
19665;DHT22;9980;51.020;7.772;2022-11-20T15:35:48;7.50;99.90
19665;DHT22;9980;51.020;7.772;2022-11-20T15:38:14;7.50;99.90
19665;DHT22;9980;51.020;7.772;2022-11-20T15:40:41;7.60;99.90
19665;DHT22;9980;51.020;7.772;2022-11-20T15:43:07;7.50;99.90
19665;DHT22;9980;51.020;7.772;2022-11-20T15:45:47;7.50;99.90
19665;DHT22;9980;51.020;7.772;2022-11-20T15:53:54;7.50;99.90
19665;DHT22;9980;51.020;7.772;2022-11-20T15:56:21;7.50;99.90
19665;DHT22;9980;51.020;7.772;2022-11-20T15:58:48;7.50;99.90
19665;DHT22;9980;51.020;7.772;2022-11-20T16:01:17;7.50;99.90
19665;DHT22;9980;51.020;7.772;2022-11-20T16:03:45;7.50;99.90
19665;DHT22;9980;51.020;7.772;2022-11-20T16:06:11;7.50;99.90
19665;DHT22;9980;51.020;7.772;2022-11-20T16:08:38;7.50;99.90
19665;DHT22;9980;51.020;7.772;2022-11-20T16:11:04;7.50;99.90
19665;DHT22;9980;51.020;7.772;2022-11-20T16:13:32;7.50;99.90
19665;DHT22;9980;51.020;7.772;2022-11-20T16:16:26;7.50;99.90
19665;DHT22;9980;51.020;7.772;2022-11-20T16:18:56;7.50;99.90
19665;DHT22;9980;51.020;7.772;2022-11-20T16:21:24;7.50;99.90
19665;DHT22;9980;51.020;7.772;2022-11-20T16:24:01;7.50;99.90
19665;DHT22;9980;51.020;7.772;2022-11-20T16:26:30;7.50;99.90
19665;DHT22;9980;51.020;7.772;2022-11-20T16:29:02;7.50;99.90
19665;DHT22;9980;51.020;7.772;2022-11-20T16:31:29;7.50;99.90
19665;DHT22;9980;51.020;7.772;2022-11-20T16:33:58;7.50;99.90
19665;DHT22;9980;51.020;7.772;2022-11-20T16:36:27;7.50;99.90
19665;DHT22;9980;51.020;7.772;2022-11-20T16:38:56;7.50;99.90
19665;DHT22;9980;51.020;7.772;2022-11-20T16:41:25;7.50;99.90
19665;DHT22;9980;51.020;7.772;2022-11-20T16:43:55;7.50;99.90
19665;DHT22;9980;51.020;7.772;2022-11-20T16:46:27;7.60;99.90
19665;DHT22;9980;51.020;7.772;2022-11-20T16:48:58;7.50;99.90
19665;DHT22;9980;51.020;7.772;2022-11-20T16:51:29;7.60;99.90
19665;DHT22;9980;51.020;7.772;2022-11-20T16:53:56;7.60;99.90
19665;DHT22;9980;51.020;7.772;2022-11-20T16:56:26;7.60;99.90
19665;DHT22;9980;51.020;7.772;2022-11-20T16:58:55;7.60;99.90
19665;DHT22;9980;51.020;7.772;2022-11-20T17:01:24;7.60;99.90
19665;DHT22;9980;51.020;7.772;2022-11-20T17:03:56;7.60;99.90
19665;DHT22;9980;51.020;7.772;2022-11-20T17:06:27;7.70;99.90
19665;DHT22;9980;51.020;7.772;2022-11-20T17:08:56;7.70;99.90
19665;DHT22;9980;51.020;7.772;2022-11-20T17:11:24;7.70;99.90
19665;DHT22;9980;51.020;7.772;2022-11-20T17:13:51;7.70;99.90
19665;DHT22;9980;51.020;7.772;2022-11-20T17:16:22;7.70;99.90
19665;DHT22;9980;51.020;7.772;2022-11-20T17:18:49;7.80;99.90
19665;DHT22;9980;51.020;7.772;2022-11-20T17:21:17;7.70;99.90
19665;DHT22;9980;51.020;7.772;2022-11-20T17:23:45;7.80;99.90
19665;DHT22;9980;51.020;7.772;2022-11-20T17:26:16;7.80;99.90
19665;DHT22;9980;51.020;7.772;2022-11-20T17:28:57;7.80;99.90
19665;DHT22;9980;51.020;7.772;2022-11-20T17:31:27;7.80;99.90
19665;DHT22;9980;51.020;7.772;2022-11-20T17:33:54;7.80;99.90
19665;DHT22;9980;51.020;7.772;2022-11-20T17:36:21;7.80;99.90
19665;DHT22;9980;51.020;7.772;2022-11-20T17:38:48;7.80;99.90
19665;DHT22;9980;51.020;7.772;2022-11-20T17:41:17;7.80;99.90
19665;DHT22;9980;51.020;7.772;2022-11-20T17:43:45;7.80;99.90
19665;DHT22;9980;51.020;7.772;2022-11-20T17:46:20;7.80;99.90
19665;DHT22;9980;51.020;7.772;2022-11-20T17:48:47;7.80;99.90
19665;DHT22;9980;51.020;7.772;2022-11-20T17:51:17;7.80;99.90
19665;DHT22;9980;51.020;7.772;2022-11-20T17:53:47;7.80;99.90
19665;DHT22;9980;51.020;7.772;2022-11-20T17:56:15;7.80;99.90
19665;DHT22;9980;51.020;7.772;2022-11-20T17:59:09;7.80;99.90
19665;DHT22;9980;51.020;7.772;2022-11-20T18:01:37;7.90;99.90
19665;DHT22;9980;51.020;7.772;2022-11-20T18:04:05;7.90;99.90
19665;DHT22;9980;51.020;7.772;2022-11-20T18:06:31;7.90;99.90
19665;DHT22;9980;51.020;7.772;2022-11-20T18:08:58;7.90;99.90
19665;DHT22;9980;51.020;7.772;2022-11-20T18:11:27;7.90;99.90
19665;DHT22;9980;51.020;7.772;2022-11-20T18:13:59;7.90;99.90